Time;durP1;ratioP1;P1;durP2;ratioP2;P2;SDS_P1;SDS_P2;PMS_P1;PMS_P2;Temp;Humidity;BMP_temperature;BMP_pressure;BME280_temperature;BME280_humidity;BME280_pressure;Samples;Min_cycle;Max_cycle;Signal;HPM_P1;HPM_P2
2023/08/10 00:00:15;;;;;;;1.30;1.10;;;;;;;;;;8203120;28;20117;-69
2023/08/10 00:04:16;;;;;;;1.77;1.10;;;;;;;;;;8205630;28;20022;-69
2023/08/10 00:08:16;;;;;;;1.52;1.05;;;;;;;;;;8213291;28;20073;-69
2023/08/10 00:12:16;;;;;;;1.40;1.20;;;;;;;;;;8207977;28;20104;-68
2023/08/10 00:16:16;;;;;;;1.10;1.10;;;;;;;;;;8206462;28;20081;-68
2023/08/10 00:20:17;;;;;;;1.30;1.20;;;;;;;;;;8206079;28;20570;-68
2023/08/10 00:24:17;;;;;;;1.95;1.00;;;;;;;;;;8208089;28;20117;-68
2023/08/10 00:28:17;;;;;;;2.63;1.13;;;;;;;;;;8205150;28;20034;-68
2023/08/10 00:32:19;;;;;;;2.80;1.10;;;;;;;;;;8205412;28;20038;-68
2023/08/10 00:36:19;;;;;;;1.40;1.30;;;;;;;;;;8203488;28;20050;-68
2023/08/10 00:40:19;;;;;;;1.20;1.10;;;;;;;;;;8205587;28;20022;-68
2023/08/10 00:44:19;;;;;;;1.60;1.27;;;;;;;;;;8204260;28;20146;-68
2023/08/10 00:48:21;;;;;;;1.10;1.10;;;;;;;;;;8202509;28;20073;-68
2023/08/10 00:52:21;;;;;;;1.77;1.20;;;;;;;;;;8204384;28;20142;-68
2023/08/10 00:56:21;;;;;;;2.93;1.23;;;;;;;;;;8208376;28;20141;-68
2023/08/10 01:00:21;;;;;;;1.58;1.15;;;;;;;;;;8202855;28;20277;-68
2023/08/10 01:04:22;;;;;;;3.70;1.30;;;;;;;;;;8202988;28;20030;-68
2023/08/10 01:08:26;;;;;;;1.20;1.10;;;;;;;;;;8204090;28;20034;-68
2023/08/10 01:12:35;;;;;;;2.42;1.20;;;;;;;;;;8205404;28;20543;-68
2023/08/10 01:16:37;;;;;;;2.00;1.20;;;;;;;;;;8206563;28;20030;-68
2023/08/10 01:20:38;;;;;;;2.58;1.30;;;;;;;;;;8205854;28;20031;-68
2023/08/10 01:24:42;;;;;;;1.75;1.20;;;;;;;;;;8203717;28;20490;-68
2023/08/10 01:28:42;;;;;;;2.42;1.10;;;;;;;;;;8203373;28;20379;-69
2023/08/10 01:32:43;;;;;;;1.15;1.05;;;;;;;;;;8205771;28;20120;-69
2023/08/10 01:36:43;;;;;;;1.75;1.20;;;;;;;;;;8209094;28;20027;-69
2023/08/10 01:40:43;;;;;;;1.30;1.20;;;;;;;;;;8202908;28;20039;-69
2023/08/10 01:44:43;;;;;;;2.25;1.25;;;;;;;;;;8208357;28;20113;-69
2023/08/10 01:48:44;;;;;;;2.55;1.40;;;;;;;;;;8202722;28;20050;-69
2023/08/10 01:52:48;;;;;;;1.88;1.30;;;;;;;;;;8204858;28;20521;-68
2023/08/10 01:56:49;;;;;;;2.33;1.63;;;;;;;;;;8208454;28;20030;-69
2023/08/10 02:00:49;;;;;;;2.97;1.40;;;;;;;;;;8209657;28;20425;-68
2023/08/10 02:04:50;;;;;;;2.10;1.02;;;;;;;;;;8209797;28;20380;-69
2023/08/10 02:08:50;;;;;;;3.10;1.30;;;;;;;;;;8209687;28;20058;-69
2023/08/10 02:12:50;;;;;;;2.23;1.47;;;;;;;;;;8211965;28;20520;-69
2023/08/10 02:16:51;;;;;;;4.30;1.30;;;;;;;;;;8209967;28;20352;-69
2023/08/10 02:20:51;;;;;;;2.70;1.53;;;;;;;;;;8208314;28;20041;-68
2023/08/10 02:24:51;;;;;;;1.60;1.30;;;;;;;;;;8209420;28;20282;-68
2023/08/10 02:28:52;;;;;;;3.15;1.50;;;;;;;;;;8210557;28;20026;-69
2023/08/10 02:32:52;;;;;;;3.97;1.40;;;;;;;;;;8209877;28;20157;-68
2023/08/10 02:36:52;;;;;;;1.40;1.30;;;;;;;;;;8209194;28;20027;-69
2023/08/10 02:40:52;;;;;;;2.08;1.45;;;;;;;;;;8207472;28;20057;-69
2023/08/10 02:44:53;;;;;;;2.17;1.50;;;;;;;;;;8209869;28;20023;-69
2023/08/10 02:48:53;;;;;;;1.42;1.33;;;;;;;;;;8207381;28;20710;-68
2023/08/10 02:52:54;;;;;;;3.15;1.48;;;;;;;;;;8206148;28;20042;-69
2023/08/10 02:56:54;;;;;;;2.55;1.30;;;;;;;;;;8207192;28;20026;-69
2023/08/10 03:00:54;;;;;;;1.88;1.70;;;;;;;;;;8206606;28;20034;-69
2023/08/10 03:04:55;;;;;;;4.05;1.27;;;;;;;;;;8224671;28;20081;-69
2023/08/10 03:08:55;;;;;;;2.17;1.50;;;;;;;;;;8207952;28;20105;-69
2023/08/10 03:12:55;;;;;;;2.30;1.40;;;;;;;;;;8206549;28;20133;-69
2023/08/10 03:16:55;;;;;;;1.87;1.60;;;;;;;;;;8207655;28;20046;-69
2023/08/10 03:20:55;;;;;;;7.00;1.50;;;;;;;;;;8209744;28;20284;-69
2023/08/10 03:24:56;;;;;;;3.22;1.50;;;;;;;;;;8208536;28;20101;-68
2023/08/10 03:28:56;;;;;;;2.25;1.40;;;;;;;;;;8208444;28;20077;-69
2023/08/10 03:32:56;;;;;;;1.60;1.40;;;;;;;;;;8206913;28;20035;-69
2023/08/10 03:36:56;;;;;;;4.13;1.52;;;;;;;;;;8207895;28;20076;-69
2023/08/10 03:40:57;;;;;;;5.90;1.60;;;;;;;;;;8205305;28;20023;-68
2023/08/10 03:44:58;;;;;;;2.47;1.47;;;;;;;;;;8208541;28;20120;-69
2023/08/10 03:48:58;;;;;;;1.60;1.30;;;;;;;;;;8207209;28;20041;-69
2023/08/10 03:52:58;;;;;;;2.15;1.40;;;;;;;;;;8207429;28;20141;-68
2023/08/10 03:56:59;;;;;;;1.70;1.60;;;;;;;;;;8207969;28;20108;-69
2023/08/10 04:00:59;;;;;;;2.58;1.40;;;;;;;;;;8207535;28;20042;-69
2023/08/10 04:05:04;;;;;;;2.07;1.30;;;;;;;;;;8207786;28;20026;-69
2023/08/10 04:09:04;;;;;;;3.28;1.42;;;;;;;;;;8204449;28;20023;-69
2023/08/10 04:13:05;;;;;;;3.42;1.45;;;;;;;;;;8208017;28;20030;-69
2023/08/10 04:17:05;;;;;;;5.03;1.73;;;;;;;;;;8204606;28;21100;-69
2023/08/10 04:21:05;;;;;;;2.33;1.40;;;;;;;;;;8207985;28;20022;-69
2023/08/10 04:25:07;;;;;;;4.15;1.50;;;;;;;;;;8206658;28;20042;-69
2023/08/10 04:29:07;;;;;;;2.53;1.50;;;;;;;;;;8205358;28;20027;-69
2023/08/10 04:33:09;;;;;;;2.47;1.70;;;;;;;;;;8207494;28;20089;-69
2023/08/10 04:37:09;;;;;;;4.38;1.70;;;;;;;;;;8208316;28;20037;-69
2023/08/10 04:41:09;;;;;;;3.22;1.52;;;;;;;;;;8206959;28;20101;-69
2023/08/10 04:45:09;;;;;;;2.60;1.77;;;;;;;;;;8202790;28;20057;-69
2023/08/10 04:49:10;;;;;;;7.97;2.00;;;;;;;;;;8205651;28;20274;-69
2023/08/10 04:53:10;;;;;;;3.85;1.70;;;;;;;;;;8204299;28;20304;-69
2023/08/10 04:57:11;;;;;;;4.80;1.67;;;;;;;;;;8204209;28;20027;-69
2023/08/10 05:01:14;;;;;;;3.13;1.90;;;;;;;;;;8204323;28;20279;-69
2023/08/10 05:05:14;;;;;;;2.93;1.87;;;;;;;;;;8204466;28;21941;-69
2023/08/10 05:09:15;;;;;;;7.57;1.83;;;;;;;;;;8204471;28;20045;-68
2023/08/10 05:13:15;;;;;;;2.55;1.73;;;;;;;;;;8205077;28;20057;-69
2023/08/10 05:17:16;;;;;;;4.00;1.90;;;;;;;;;;8205808;28;20070;-69
2023/08/10 05:21:17;;;;;;;4.97;2.30;;;;;;;;;;8205564;28;20089;-69
2023/08/10 05:25:17;;;;;;;2.53;1.70;;;;;;;;;;8203584;28;20034;-69
2023/08/10 05:29:17;;;;;;;5.03;1.77;;;;;;;;;;8202609;28;20030;-69
2023/08/10 05:33:17;;;;;;;4.77;1.97;;;;;;;;;;8210698;28;20042;-69
2023/08/10 05:37:17;;;;;;;6.07;1.67;;;;;;;;;;8205243;28;20105;-69
2023/08/10 05:41:18;;;;;;;4.75;1.98;;;;;;;;;;8210887;28;20030;-69
2023/08/10 05:45:19;;;;;;;4.68;1.80;;;;;;;;;;8209591;28;20027;-69
2023/08/10 05:49:19;;;;;;;4.40;1.80;;;;;;;;;;8207822;28;20015;-69
2023/08/10 05:53:19;;;;;;;4.60;1.88;;;;;;;;;;8209425;28;20149;-69
2023/08/10 05:57:19;;;;;;;3.58;2.30;;;;;;;;;;8210505;28;20038;-69
2023/08/10 06:01:21;;;;;;;3.40;2.00;;;;;;;;;;8207727;28;20042;-69
2023/08/10 06:05:21;;;;;;;7.75;2.28;;;;;;;;;;8210964;28;20734;-69
2023/08/10 06:09:21;;;;;;;3.30;1.80;;;;;;;;;;8210227;28;20146;-69
2023/08/10 06:13:21;;;;;;;7.40;2.17;;;;;;;;;;8209816;28;20084;-69
2023/08/10 06:17:21;;;;;;;3.03;2.00;;;;;;;;;;8210029;28;20145;-69
2023/08/10 06:21:22;;;;;;;3.67;2.10;;;;;;;;;;8212439;28;20096;-69
2023/08/10 06:25:24;;;;;;;6.38;1.83;;;;;;;;;;8210478;28;20026;-69
2023/08/10 06:29:24;;;;;;;7.88;2.53;;;;;;;;;;8210452;28;20026;-69
2023/08/10 06:33:24;;;;;;;3.20;1.80;;;;;;;;;;8208266;28;20039;-69
2023/08/10 06:37:25;;;;;;;8.52;2.30;;;;;;;;;;8207722;28;20027;-70
2023/08/10 06:41:25;;;;;;;4.78;1.65;;;;;;;;;;8209555;28;20428;-70
2023/08/10 06:45:25;;;;;;;3.58;1.80;;;;;;;;;;8209663;28;20114;-70
2023/08/10 06:49:26;;;;;;;4.65;1.60;;;;;;;;;;8208059;28;20030;-69
2023/08/10 06:53:26;;;;;;;3.55;2.00;;;;;;;;;;8210571;28;20026;-70
2023/08/10 06:57:26;;;;;;;2.05;1.50;;;;;;;;;;8207701;28;20176;-70
2023/08/10 07:01:27;;;;;;;4.05;1.92;;;;;;;;;;8209639;28;20038;-70
2023/08/10 07:05:27;;;;;;;3.28;1.70;;;;;;;;;;8210636;28;20392;-70
2023/08/10 07:09:27;;;;;;;3.05;1.55;;;;;;;;;;8208378;28;20026;-70
2023/08/10 07:13:27;;;;;;;3.60;1.53;;;;;;;;;;8212419;28;20034;-70
2023/08/10 07:17:28;;;;;;;3.33;1.30;;;;;;;;;;8208794;28;20355;-70
2023/08/10 07:21:28;;;;;;;3.45;1.73;;;;;;;;;;8210345;28;20065;-70
2023/08/10 07:25:28;;;;;;;2.53;1.40;;;;;;;;;;8208704;28;20026;-70
2023/08/10 07:29:28;;;;;;;2.03;1.20;;;;;;;;;;8209544;28;20935;-70
2023/08/10 07:33:28;;;;;;;3.75;1.50;;;;;;;;;;8207938;28;20053;-70
2023/08/10 07:37:29;;;;;;;2.75;1.33;;;;;;;;;;8206544;28;20041;-71
2023/08/10 07:41:29;;;;;;;3.00;1.27;;;;;;;;;;8206914;28;20034;-70
2023/08/10 07:45:30;;;;;;;2.30;1.27;;;;;;;;;;8205273;28;20038;-70
2023/08/10 07:49:31;;;;;;;4.05;1.40;;;;;;;;;;8203738;28;20053;-71
2023/08/10 07:53:33;;;;;;;3.28;1.33;;;;;;;;;;8205086;28;20030;-70
2023/08/10 07:57:33;;;;;;;2.65;1.50;;;;;;;;;;8204460;28;20126;-70
2023/08/10 08:01:33;;;;;;;4.87;1.40;;;;;;;;;;8203282;28;20038;-71
2023/08/10 08:05:37;;;;;;;3.83;1.70;;;;;;;;;;8203861;28;20029;-70
2023/08/10 08:09:37;;;;;;;7.35;1.88;;;;;;;;;;8204403;28;20077;-70
2023/08/10 08:13:37;;;;;;;3.80;1.50;;;;;;;;;;8206552;28;20026;-70
2023/08/10 08:17:56;;;;;;;8.40;1.65;;;;;;;;;;8204374;28;20093;-70
2023/08/10 08:21:56;;;;;;;3.15;1.50;;;;;;;;;;8203104;28;20034;-70
2023/08/10 08:25:57;;;;;;;5.35;1.60;;;;;;;;;;8206993;28;20026;-70
2023/08/10 08:29:57;;;;;;;2.30;1.40;;;;;;;;;;8207269;28;20113;-73
2023/08/10 08:33:57;;;;;;;2.58;1.67;;;;;;;;;;8206180;28;20034;-71
2023/08/10 08:37:57;;;;;;;2.80;1.42;;;;;;;;;;8204134;28;20019;-71
2023/08/10 08:41:58;;;;;;;2.70;1.40;;;;;;;;;;8209830;28;20031;-72
2023/08/10 08:45:59;;;;;;;4.38;1.70;;;;;;;;;;8208009;28;20038;-72
2023/08/10 08:50:00;;;;;;;2.15;1.30;;;;;;;;;;8204572;28;20022;-71
2023/08/10 08:54:01;;;;;;;3.67;1.45;;;;;;;;;;8203069;28;20582;-71
2023/08/10 08:58:01;;;;;;;4.47;1.50;;;;;;;;;;8204809;28;20043;-71
2023/08/10 09:02:01;;;;;;;2.07;1.30;;;;;;;;;;8205083;28;20181;-72
2023/08/10 09:06:02;;;;;;;3.30;1.13;;;;;;;;;;8201570;28;20453;-71
2023/08/10 09:10:05;;;;;;;1.80;1.30;;;;;;;;;;8205028;28;20270;-72
2023/08/10 09:14:06;;;;;;;6.18;1.45;;;;;;;;;;8221342;28;20061;-72
2023/08/10 09:18:07;;;;;;;3.13;1.40;;;;;;;;;;8204868;28;20133;-73
2023/08/10 09:22:07;;;;;;;1.30;1.10;;;;;;;;;;8204972;28;20042;-72
2023/08/10 09:26:11;;;;;;;3.15;1.40;;;;;;;;;;8206695;28;20085;-72
2023/08/10 09:30:11;;;;;;;2.63;1.40;;;;;;;;;;8206472;28;20550;-72
2023/08/10 09:34:20;;;;;;;1.83;1.20;;;;;;;;;;8204987;28;20039;-72
2023/08/10 09:38:21;;;;;;;2.95;1.50;;;;;;;;;;8204773;28;20050;-72
2023/08/10 09:42:21;;;;;;;2.00;1.30;;;;;;;;;;8205618;28;20031;-72
2023/08/10 09:46:21;;;;;;;2.53;1.30;;;;;;;;;;8202590;28;20668;-72
2023/08/10 09:50:23;;;;;;;1.77;1.37;;;;;;;;;;8201804;28;20819;-72
2023/08/10 09:54:23;;;;;;;2.47;1.40;;;;;;;;;;8203194;28;20052;-72
2023/08/10 09:58:24;;;;;;;2.15;1.33;;;;;;;;;;8201959;28;20144;-72
2023/08/10 10:02:25;;;;;;;2.90;1.30;;;;;;;;;;8201617;28;20073;-72
2023/08/10 10:06:26;;;;;;;2.30;1.27;;;;;;;;;;8200969;28;20033;-71
2023/08/10 10:10:26;;;;;;;8.30;2.90;;;;;;;;;;8199932;28;20131;-72
2023/08/10 10:14:27;;;;;;;106.97;34.55;;;;;;;;;;8210115;28;20168;-72
2023/08/10 10:18:27;;;;;;;2.33;1.60;;;;;;;;;;8207286;28;20035;-72
2023/08/10 10:22:27;;;;;;;2.45;1.50;;;;;;;;;;8210945;28;20023;-72
2023/08/10 10:26:27;;;;;;;2.33;1.60;;;;;;;;;;8210703;28;20054;-72
2023/08/10 10:30:28;;;;;;;3.33;1.60;;;;;;;;;;8208336;28;20674;-72
2023/08/10 10:34:32;;;;;;;3.63;1.77;;;;;;;;;;8209581;28;20479;-72
2023/08/10 10:38:39;;;;;;;17.88;6.95;;;;;;;;;;8217640;28;20045;-72
2023/08/10 10:42:58;;;;;;;4.68;1.60;;;;;;;;;;8208145;28;20022;-72
2023/08/10 10:46:59;;;;;;;12.07;2.97;;;;;;;;;;8209127;28;20066;-72
2023/08/10 10:51:01;;;;;;;6.43;1.70;;;;;;;;;;8208902;28;20941;-72
2023/08/10 10:55:03;;;;;;;5.10;1.92;;;;;;;;;;8206902;28;20026;-72
2023/08/10 10:59:04;;;;;;;;;;;;;;;;;;8204738;28;20065;-72
2023/08/10 11:03:04;;;;;;;1.92;1.30;;;;;;;;;;8206021;28;20437;-72
2023/08/10 11:07:05;;;;;;;3.65;1.60;;;;;;;;;;8204669;28;20022;-72
2023/08/10 11:11:05;;;;;;;4.07;1.50;;;;;;;;;;8208400;28;20521;-72
2023/08/10 11:15:06;;;;;;;2.60;1.40;;;;;;;;;;8204486;28;20121;-72
2023/08/10 11:19:10;;;;;;;3.72;1.60;;;;;;;;;;8208313;28;20027;-72
2023/08/10 11:23:11;;;;;;;2.08;1.35;;;;;;;;;;8214696;28;20411;-72
2023/08/10 11:27:12;;;;;;;3.60;1.50;;;;;;;;;;8206500;28;20695;-72
2023/08/10 11:31:14;;;;;;;2.55;1.30;;;;;;;;;;8206957;28;20050;-72
2023/08/10 11:35:16;;;;;;;2.85;1.50;;;;;;;;;;8207643;28;20077;-72
2023/08/10 11:39:17;;;;;;;1.98;1.48;;;;;;;;;;8206135;28;20924;-72
2023/08/10 11:43:20;;;;;;;1.90;1.60;;;;;;;;;;8207857;28;20125;-72
2023/08/10 11:47:21;;;;;;;2.67;1.50;;;;;;;;;;8214051;28;20045;-74
2023/08/10 11:51:21;;;;;;;5.45;1.55;;;;;;;;;;8206809;28;20022;-73
2023/08/10 11:55:21;;;;;;;2.85;1.33;;;;;;;;;;8206504;28;20018;-72
2023/08/10 11:59:21;;;;;;;2.63;1.38;;;;;;;;;;8202650;28;20078;-72
2023/08/10 12:03:23;;;;;;;4.90;1.50;;;;;;;;;;8201650;28;20228;-72
2023/08/10 12:07:24;;;;;;;3.53;1.60;;;;;;;;;;8207101;28;20117;-72
2023/08/10 12:11:24;;;;;;;4.82;1.38;;;;;;;;;;8204299;28;20030;-73
2023/08/10 12:15:24;;;;;;;2.37;1.30;;;;;;;;;;8205418;28;20038;-72
2023/08/10 12:19:24;;;;;;;1.85;1.40;;;;;;;;;;8203747;28;20026;-73
2023/08/10 12:23:25;;;;;;;1.83;1.20;;;;;;;;;;8205733;28;20026;-72
2023/08/10 12:27:26;;;;;;;3.13;1.50;;;;;;;;;;8206463;28;20042;-72
2023/08/10 12:31:26;;;;;;;3.15;1.30;;;;;;;;;;8206368;28;20655;-73
2023/08/10 12:35:26;;;;;;;2.37;1.33;;;;;;;;;;8205683;28;20053;-72
2023/08/10 12:39:28;;;;;;;5.23;1.53;;;;;;;;;;8205211;28;20027;-72
2023/08/10 12:43:29;;;;;;;2.42;1.42;;;;;;;;;;8206093;28;20089;-72
2023/08/10 12:47:29;;;;;;;2.42;1.63;;;;;;;;;;8204438;28;20035;-72
2023/08/10 12:51:29;;;;;;;6.22;1.40;;;;;;;;;;8204152;28;20066;-73
2023/08/10 12:55:29;;;;;;;2.05;1.27;;;;;;;;;;8204125;28;20022;-72
2023/08/10 12:59:29;;;;;;;5.72;1.50;;;;;;;;;;8203192;28;20133;-72
2023/08/10 13:03:32;;;;;;;2.17;1.60;;;;;;;;;;8213273;28;20054;-72
2023/08/10 13:07:33;;;;;;;2.55;1.70;;;;;;;;;;8204265;28;20721;-72
2023/08/10 13:11:35;;;;;;;3.72;1.52;;;;;;;;;;8205315;28;20400;-72
2023/08/10 13:15:35;;;;;;;1.40;1.30;;;;;;;;;;8204650;28;20979;-72
2023/08/10 13:19:35;;;;;;;2.45;1.23;;;;;;;;;;8212288;28;20026;-72
2023/08/10 13:23:36;;;;;;;1.80;1.47;;;;;;;;;;8202947;28;20402;-72
2023/08/10 13:27:36;;;;;;;4.23;1.57;;;;;;;;;;8201783;28;20381;-72
2023/08/10 13:31:38;;;;;;;6.47;1.60;;;;;;;;;;8203420;28;20043;-72
2023/08/10 13:35:38;;;;;;;3.60;1.33;;;;;;;;;;8205115;28;20023;-72
2023/08/10 13:39:38;;;;;;;5.37;1.40;;;;;;;;;;8202454;28;20476;-72
2023/08/10 13:43:38;;;;;;;2.50;1.40;;;;;;;;;;8206183;28;20038;-72
2023/08/10 13:47:39;;;;;;;2.58;1.58;;;;;;;;;;8206433;28;20062;-72
2023/08/10 13:51:39;;;;;;;1.52;1.20;;;;;;;;;;8206194;28;20069;-72
2023/08/10 13:55:39;;;;;;;1.80;1.55;;;;;;;;;;8212289;28;20035;-72
2023/08/10 13:59:40;;;;;;;1.53;1.30;;;;;;;;;;8210732;28;20018;-72
2023/08/10 14:03:40;;;;;;;1.60;1.50;;;;;;;;;;8209125;28;20033;-72
2023/08/10 14:07:40;;;;;;;3.22;1.80;;;;;;;;;;8210967;28;20030;-72
2023/08/10 14:11:43;;;;;;;2.03;1.60;;;;;;;;;;8208827;28;20026;-72
2023/08/10 14:15:43;;;;;;;1.88;1.40;;;;;;;;;;8205528;28;20038;-72
2023/08/10 14:19:44;;;;;;;2.65;1.60;;;;;;;;;;8206996;28;20109;-72
2023/08/10 14:23:44;;;;;;;2.03;1.40;;;;;;;;;;8207182;28;20034;-72
2023/08/10 14:27:44;;;;;;;4.07;1.70;;;;;;;;;;8207689;28;20041;-72
2023/08/10 14:31:44;;;;;;;2.55;1.45;;;;;;;;;;8204465;28;20034;-72
2023/08/10 14:35:45;;;;;;;1.57;1.40;;;;;;;;;;8204196;28;20031;-72
2023/08/10 14:39:45;;;;;;;5.30;1.50;;;;;;;;;;8204940;28;20101;-72
2023/08/10 14:43:45;;;;;;;1.48;1.30;;;;;;;;;;8206859;28;20041;-73
2023/08/10 14:47:58;;;;;;;1.90;1.30;;;;;;;;;;8203485;28;20039;-72
2023/08/10 14:51:59;;;;;;;1.80;1.17;;;;;;;;;;8204594;28;20025;-74
2023/08/10 14:55:59;;;;;;;2.13;1.50;;;;;;;;;;8207403;28;20034;-73
2023/08/10 15:00:00;;;;;;;1.73;1.50;;;;;;;;;;8205870;28;20018;-73
2023/08/10 15:04:00;;;;;;;4.28;1.55;;;;;;;;;;8205221;28;20058;-74
2023/08/10 15:08:00;;;;;;;3.03;1.60;;;;;;;;;;8206702;28;20162;-72
2023/08/10 15:12:02;;;;;;;2.00;1.40;;;;;;;;;;8203321;28;20031;-73
2023/08/10 15:16:03;;;;;;;3.03;1.58;;;;;;;;;;8205950;28;20413;-73
2023/08/10 15:20:06;;;;;;;3.60;1.30;;;;;;;;;;8220186;28;20038;-73
2023/08/10 15:24:06;;;;;;;5.18;1.35;;;;;;;;;;8207116;28;20715;-73
2023/08/10 15:28:07;;;;;;;4.30;1.70;;;;;;;;;;8205656;28;20100;-73
2023/08/10 15:32:07;;;;;;;1.52;1.42;;;;;;;;;;8204159;28;20121;-72
2023/08/10 15:36:08;;;;;;;1.90;1.27;;;;;;;;;;8205236;28;20113;-73
2023/08/10 15:40:09;;;;;;;2.22;1.38;;;;;;;;;;8204692;28;20027;-73
2023/08/10 15:44:09;;;;;;;1.85;1.58;;;;;;;;;;8204783;28;20862;-74
2023/08/10 15:48:09;;;;;;;4.57;1.30;;;;;;;;;;8202135;28;20114;-74
2023/08/10 15:52:09;;;;;;;4.80;1.48;;;;;;;;;;8204800;28;20042;-74
2023/08/10 15:56:09;;;;;;;2.58;1.20;;;;;;;;;;8204985;28;20042;-73
2023/08/10 16:00:12;;;;;;;2.13;1.20;;;;;;;;;;8201948;28;20928;-74
2023/08/10 16:04:12;;;;;;;2.20;1.40;;;;;;;;;;8202714;28;20014;-73
2023/08/10 16:08:12;;;;;;;2.73;1.53;;;;;;;;;;8200972;28;21030;-73
2023/08/10 16:12:12;;;;;;;3.00;1.25;;;;;;;;;;8197627;28;20480;-73
2023/08/10 16:16:13;;;;;;;1.35;1.25;;;;;;;;;;8198899;28;20045;-72
2023/08/10 16:20:14;;;;;;;2.60;1.58;;;;;;;;;;8200000;28;20080;-71
2023/08/10 16:24:15;;;;;;;1.88;1.25;;;;;;;;;;8200408;28;20027;-72
2023/08/10 16:28:15;;;;;;;3.77;1.20;;;;;;;;;;8198790;28;20041;-72
2023/08/10 16:32:15;;;;;;;4.05;1.35;;;;;;;;;;8197681;28;20117;-72
2023/08/10 16:36:15;;;;;;;1.23;1.13;;;;;;;;;;8202110;28;20041;-71
2023/08/10 16:40:16;;;;;;;1.95;1.50;;;;;;;;;;8199529;28;20022;-72
2023/08/10 16:44:16;;;;;;;3.03;1.40;;;;;;;;;;8197932;28;20107;-71
2023/08/10 16:48:16;;;;;;;3.00;1.40;;;;;;;;;;8194548;28;21461;-71
2023/08/10 16:52:17;;;;;;;1.20;1.10;;;;;;;;;;8197888;28;20045;-72
2023/08/10 16:56:19;;;;;;;1.33;1.23;;;;;;;;;;8200652;28;20108;-72
2023/08/10 17:00:19;;;;;;;1.53;1.20;;;;;;;;;;8204351;28;20026;-72
2023/08/10 17:04:19;;;;;;;1.40;1.27;;;;;;;;;;8198508;28;21000;-72
2023/08/10 17:08:20;;;;;;;4.07;1.60;;;;;;;;;;8199222;28;20026;-72
2023/08/10 17:12:20;;;;;;;1.88;1.23;;;;;;;;;;8198166;28;20022;-71
2023/08/10 17:16:20;;;;;;;2.60;1.42;;;;;;;;;;8201845;28;20058;-70
2023/08/10 17:20:21;;;;;;;2.92;1.58;;;;;;;;;;8199943;28;20046;-71
2023/08/10 17:24:21;;;;;;;1.35;1.25;;;;;;;;;;8199035;28;20054;-71
2023/08/10 17:28:21;;;;;;;1.48;1.30;;;;;;;;;;8201971;28;20141;-71
2023/08/10 17:32:21;;;;;;;2.05;1.20;;;;;;;;;;8200644;28;20051;-71
2023/08/10 17:36:21;;;;;;;3.63;1.40;;;;;;;;;;8205631;28;20041;-71
2023/08/10 17:40:21;;;;;;;1.63;1.25;;;;;;;;;;8195383;28;20387;-72
2023/08/10 17:44:22;;;;;;;4.20;1.45;;;;;;;;;;8195117;28;20026;-72
2023/08/10 17:48:22;;;;;;;2.72;1.33;;;;;;;;;;8198733;28;20062;-72
2023/08/10 17:52:22;;;;;;;1.90;1.17;;;;;;;;;;8197167;28;20030;-71
2023/08/10 17:56:22;;;;;;;1.30;1.17;;;;;;;;;;8200012;28;20038;-72
2023/08/10 18:00:23;;;;;;;2.10;1.33;;;;;;;;;;8196181;28;20162;-72
2023/08/10 18:04:23;;;;;;;3.63;1.20;;;;;;;;;;8199343;28;21143;-72
2023/08/10 18:08:23;;;;;;;1.13;1.05;;;;;;;;;;8197213;28;20060;-72
2023/08/10 18:12:23;;;;;;;2.97;1.30;;;;;;;;;;8199499;28;20049;-72
2023/08/10 18:16:24;;;;;;;3.73;1.20;;;;;;;;;;8198726;28;20107;-72
2023/08/10 18:20:24;;;;;;;1.77;1.23;;;;;;;;;;8200012;28;20142;-72
2023/08/10 18:24:24;;;;;;;1.20;1.10;;;;;;;;;;8199225;28;20344;-72
2023/08/10 18:28:25;;;;;;;1.38;1.27;;;;;;;;;;8200230;28;20023;-72
2023/08/10 18:32:25;;;;;;;1.30;1.20;;;;;;;;;;8198757;28;20120;-72
2023/08/10 18:36:25;;;;;;;2.08;1.30;;;;;;;;;;8199906;28;20027;-71
2023/08/10 18:40:38;;;;;;;1.35;1.20;;;;;;;;;;8203868;28;20113;-72
2023/08/10 18:44:38;;;;;;;1.63;1.20;;;;;;;;;;8203813;28;20515;-72
2023/08/10 18:48:38;;;;;;;2.28;1.35;;;;;;;;;;8203615;28;20046;-72
2023/08/10 18:52:39;;;;;;;1.65;1.42;;;;;;;;;;8202775;28;20038;-72
2023/08/10 18:56:40;;;;;;;1.65;1.10;;;;;;;;;;8202192;28;20074;-71
2023/08/10 19:00:41;;;;;;;1.30;1.20;;;;;;;;;;8204053;28;20408;-72
2023/08/10 19:04:41;;;;;;;1.80;1.30;;;;;;;;;;8204391;28;20077;-71
2023/08/10 19:08:41;;;;;;;1.63;1.27;;;;;;;;;;8201402;28;20054;-72
2023/08/10 19:12:42;;;;;;;3.40;1.30;;;;;;;;;;8205603;28;20161;-72
2023/08/10 19:16:42;;;;;;;2.47;1.20;;;;;;;;;;8203110;28;20084;-72
2023/08/10 19:20:42;;;;;;;2.78;1.40;;;;;;;;;;8204656;28;20034;-72
2023/08/10 19:24:42;;;;;;;1.90;1.40;;;;;;;;;;8204116;28;20034;-71
2023/08/10 19:28:43;;;;;;;4.82;1.45;;;;;;;;;;8200523;28;20022;-72
2023/08/10 19:32:47;;;;;;;3.30;1.30;;;;;;;;;;8202503;28;20173;-72
2023/08/10 19:36:47;;;;;;;3.00;1.40;;;;;;;;;;8202044;28;20033;-72
2023/08/10 19:40:48;;;;;;;2.17;1.20;;;;;;;;;;8199421;28;20141;-72
2023/08/10 19:44:48;;;;;;;1.60;1.40;;;;;;;;;;8199650;28;20034;-72
2023/08/10 19:48:48;;;;;;;3.10;1.53;;;;;;;;;;8200932;28;21896;-70
2023/08/10 19:52:48;;;;;;;5.20;1.80;;;;;;;;;;8200478;28;20840;-70
2023/08/10 19:56:49;;;;;;;1.85;1.70;;;;;;;;;;8200990;28;20031;-70
2023/08/10 20:00:50;;;;;;;2.75;1.45;;;;;;;;;;8198621;28;20035;-70
2023/08/10 20:04:51;;;;;;;1.50;1.40;;;;;;;;;;8195693;28;20049;-70
2023/08/10 20:08:51;;;;;;;2.10;1.90;;;;;;;;;;8195839;28;20031;-70
2023/08/10 20:12:51;;;;;;;1.60;1.50;;;;;;;;;;8206309;28;20130;-70
2023/08/10 20:16:51;;;;;;;2.40;1.37;;;;;;;;;;8199963;28;21260;-70
2023/08/10 20:20:52;;;;;;;3.07;1.70;;;;;;;;;;8201571;28;20372;-70
2023/08/10 20:24:53;;;;;;;1.70;1.58;;;;;;;;;;8200679;28;20033;-70
2023/08/10 20:28:53;;;;;;;2.50;1.50;;;;;;;;;;8200735;28;20029;-69
2023/08/10 20:32:54;;;;;;;1.50;1.40;;;;;;;;;;8198235;28;20070;-70
2023/08/10 20:36:55;;;;;;;2.30;1.57;;;;;;;;;;8190524;28;20037;-69
2023/08/10 20:40:56;;;;;;;1.60;1.50;;;;;;;;;;8195144;28;20762;-70
2023/08/10 20:44:57;;;;;;;2.30;1.40;;;;;;;;;;8200578;28;20423;-70
2023/08/10 20:48:57;;;;;;;3.25;1.58;;;;;;;;;;8196433;28;20060;-70
2023/08/10 20:52:57;;;;;;;1.60;1.50;;;;;;;;;;8199279;28;20150;-70
2023/08/10 20:56:58;;;;;;;1.40;1.30;;;;;;;;;;8197979;28;20025;-70
2023/08/10 21:00:59;;;;;;;1.85;1.40;;;;;;;;;;8198568;28;20524;-69
2023/08/10 21:04:59;;;;;;;1.80;1.35;;;;;;;;;;8197829;28;20062;-69
2023/08/10 21:09:00;;;;;;;1.77;1.40;;;;;;;;;;8210812;28;20093;-70
2023/08/10 21:13:01;;;;;;;1.25;1.15;;;;;;;;;;8200314;28;20628;-70
2023/08/10 21:17:01;;;;;;;1.50;1.35;;;;;;;;;;8204209;28;20264;-70
2023/08/10 21:21:01;;;;;;;2.90;1.40;;;;;;;;;;8199504;28;20153;-70
2023/08/10 21:25:01;;;;;;;1.33;1.23;;;;;;;;;;8208004;28;20398;-69
2023/08/10 21:29:02;;;;;;;3.67;1.48;;;;;;;;;;8202217;28;20270;-69
2023/08/10 21:33:03;;;;;;;2.08;1.40;;;;;;;;;;8201213;28;20046;-70
2023/08/10 21:37:04;;;;;;;1.90;1.48;;;;;;;;;;8202668;28;20026;-68
2023/08/10 21:41:04;;;;;;;2.35;1.40;;;;;;;;;;8203143;28;20069;-69
2023/08/10 21:45:05;;;;;;;1.37;1.27;;;;;;;;;;8200572;28;20495;-69
2023/08/10 21:49:05;;;;;;;2.17;1.40;;;;;;;;;;8199228;28;20055;-69
2023/08/10 21:53:06;;;;;;;1.38;1.30;;;;;;;;;;8202821;28;20034;-69
2023/08/10 21:57:06;;;;;;;2.53;1.35;;;;;;;;;;8201256;28;20043;-69
2023/08/10 22:01:06;;;;;;;1.58;1.33;;;;;;;;;;8200621;28;20082;-69
2023/08/10 22:05:06;;;;;;;1.80;1.63;;;;;;;;;;8200789;28;20015;-69
2023/08/10 22:09:07;;;;;;;3.85;1.40;;;;;;;;;;8200128;28;20059;-70
2023/08/10 22:13:09;;;;;;;2.30;1.60;;;;;;;;;;8204513;28;20426;-69
2023/08/10 22:17:09;;;;;;;2.55;1.30;;;;;;;;;;8209305;28;20249;-69
2023/08/10 22:21:09;;;;;;;1.50;1.40;;;;;;;;;;8205282;28;20030;-69
2023/08/10 22:25:09;;;;;;;2.10;1.50;;;;;;;;;;8207747;28;20051;-69
2023/08/10 22:29:12;;;;;;;1.60;1.50;;;;;;;;;;8206968;28;20132;-70
2023/08/10 22:33:12;;;;;;;2.63;1.63;;;;;;;;;;8205124;28;20136;-70
2023/08/10 22:37:13;;;;;;;1.80;1.65;;;;;;;;;;8208318;28;20033;-70
2023/08/10 22:41:13;;;;;;;4.17;1.50;;;;;;;;;;8210541;28;20031;-70
2023/08/10 22:45:13;;;;;;;2.53;1.65;;;;;;;;;;8205230;28;20041;-70
2023/08/10 22:49:14;;;;;;;1.73;1.33;;;;;;;;;;8208054;28;20940;-70
2023/08/10 22:53:14;;;;;;;2.53;1.20;;;;;;;;;;8207855;28;21008;-70
2023/08/10 22:57:14;;;;;;;2.17;1.27;;;;;;;;;;8208933;28;20048;-70
2023/08/10 23:01:14;;;;;;;2.35;1.40;;;;;;;;;;8205807;28;20194;-71
2023/08/10 23:05:14;;;;;;;3.40;1.50;;;;;;;;;;8203819;28;20686;-70
2023/08/10 23:09:15;;;;;;;3.28;1.45;;;;;;;;;;8203517;28;20028;-70
2023/08/10 23:13:16;;;;;;;1.40;1.30;;;;;;;;;;8204287;28;20054;-70
2023/08/10 23:17:16;;;;;;;2.20;1.50;;;;;;;;;;8206827;28;20030;-70
2023/08/10 23:21:16;;;;;;;1.85;1.45;;;;;;;;;;8207846;28;20125;-70
2023/08/10 23:25:18;;;;;;;1.50;1.40;;;;;;;;;;8207022;28;20096;-70
2023/08/10 23:29:18;;;;;;;1.48;1.35;;;;;;;;;;8202853;28;20316;-70
2023/08/10 23:33:20;;;;;;;1.73;1.40;;;;;;;;;;8205169;28;20535;-69
2023/08/10 23:37:20;;;;;;;3.42;1.30;;;;;;;;;;8203633;28;20497;-70
2023/08/10 23:41:20;;;;;;;1.42;1.30;;;;;;;;;;8206201;28;20030;-70
2023/08/10 23:45:21;;;;;;;2.92;1.70;;;;;;;;;;8201906;28;20041;-70
2023/08/10 23:49:21;;;;;;;3.53;1.85;;;;;;;;;;8203256;28;20190;-70
2023/08/10 23:53:21;;;;;;;2.63;1.45;;;;;;;;;;8205026;28;20070;-70
2023/08/10 23:57:22;;;;;;;1.77;1.40;;;;;;;;;;8207773;28;20036;-70
